Time;durP1;ratioP1;P1;durP2;ratioP2;P2;SDS_P1;SDS_P2;PMS_P1;PMS_P2;Temp;Humidity;BMP_temperature;BMP_pressure;BME280_temperature;BME280_humidity;BME280_pressure;Samples;Min_cycle;Max_cycle;Signal;HPM_P1;HPM_P2
2022/07/12 00:00:29;;;;;;;3.00;1.65;;;;;;;35.68;22.15;100703.50;5049340;28;20036;-75
2022/07/12 00:02:55;;;;;;;3.80;1.55;;;;;;;35.27;21.96;100706.94;5032654;28;20025;-74
2022/07/12 00:05:20;;;;;;;3.60;1.67;;;;;;;35.07;22.03;100706.41;5033990;28;20113;-75
2022/07/12 00:07:45;;;;;;;2.55;1.77;;;;;;;35.05;22.28;100720.31;5034323;28;20029;-75
2022/07/12 00:10:11;;;;;;;2.00;1.73;;;;;;;35.39;22.21;100710.63;5033750;28;20112;-75
2022/07/12 00:12:36;;;;;;;2.25;1.60;;;;;;;34.89;23.13;100719.28;5033696;28;20105;-75
2022/07/12 00:15:02;;;;;;;2.10;1.33;;;;;;;34.95;22.86;100711.56;5033895;28;20057;-76
2022/07/12 00:17:27;;;;;;;4.25;1.70;;;;;;;34.98;23.12;100715.44;5033672;28;20021;-75
2022/07/12 00:19:53;;;;;;;2.17;1.45;;;;;;;34.92;23.00;100720.97;5033957;28;20398;-75
2022/07/12 00:22:18;;;;;;;1.70;1.60;;;;;;;34.98;22.20;100710.25;5033643;28;20025;-75
2022/07/12 00:24:44;;;;;;;4.57;1.90;;;;;;;34.94;22.46;100712.19;5033449;28;20022;-75
2022/07/12 00:27:10;;;;;;;2.63;1.35;;;;;;;35.05;22.57;100717.34;5031895;28;20027;-75
2022/07/12 00:29:35;;;;;;;2.63;1.40;;;;;;;35.08;21.97;100719.00;5031278;28;20026;-75
2022/07/12 00:32:01;;;;;;;2.03;1.60;;;;;;;34.96;22.79;100719.03;5031335;28;20383;-75
2022/07/12 00:34:26;;;;;;;2.75;1.48;;;;;;;35.02;22.14;100716.47;5032319;28;20022;-75
2022/07/12 00:36:52;;;;;;;4.38;1.70;;;;;;;34.97;22.44;100717.63;5032030;28;20543;-75
2022/07/12 00:39:17;;;;;;;1.80;1.38;;;;;;;35.01;22.06;100714.91;5031800;28;20046;-74
2022/07/12 00:41:42;;;;;;;2.10;1.27;;;;;;;35.14;22.16;100721.59;5031571;28;20018;-74
2022/07/12 00:44:08;;;;;;;2.10;1.50;;;;;;;34.94;22.30;100724.03;5031808;28;20478;-74
2022/07/12 00:46:34;;;;;;;2.42;1.50;;;;;;;34.95;22.64;100723.41;5031230;28;20021;-74
2022/07/12 00:48:59;;;;;;;2.03;1.35;;;;;;;34.94;22.49;100724.03;5030208;28;20022;-75
2022/07/12 00:51:25;;;;;;;6.32;1.63;;;;;;;35.01;22.51;100732.69;5031447;28;20112;-75
2022/07/12 00:53:51;;;;;;;3.38;1.63;;;;;;;34.95;22.55;100729.31;5031074;28;20493;-75
2022/07/12 00:56:16;;;;;;;2.15;1.55;;;;;;;34.86;22.87;100727.25;5029881;28;20025;-76
2022/07/12 00:58:43;;;;;;;1.95;1.75;;;;;;;34.94;22.52;100730.75;5029904;28;20036;-74
2022/07/12 01:01:09;;;;;;;3.88;1.60;;;;;;;34.89;22.71;100731.88;5033157;28;20048;-73
2022/07/12 01:03:35;;;;;;;1.92;1.40;;;;;;;35.00;22.28;100725.22;5033323;28;20397;-75
2022/07/12 01:06:00;;;;;;;3.38;1.63;;;;;;;34.93;22.24;100731.41;5032387;28;20021;-75
2022/07/12 01:08:27;;;;;;;1.67;1.33;;;;;;;34.83;21.96;100743.38;5031898;28;20025;-74
2022/07/12 01:10:52;;;;;;;1.30;1.20;;;;;;;35.03;22.19;100732.78;5033231;28;20092;-75
2022/07/12 01:13:18;;;;;;;2.38;1.33;;;;;;;35.16;22.08;100742.47;5031848;28;20466;-74
2022/07/12 01:15:44;;;;;;;2.45;1.50;;;;;;;35.14;22.24;100739.38;5033014;28;20028;-75
2022/07/12 01:18:09;;;;;;;2.42;1.48;;;;;;;35.05;21.93;100729.19;5033063;28;20057;-74
2022/07/12 01:20:35;;;;;;;2.65;1.50;;;;;;;35.05;21.56;100735.91;5031959;28;20029;-75
2022/07/12 01:23:01;;;;;;;1.90;1.70;;;;;;;34.89;22.29;100734.84;5031943;28;20044;-76
2022/07/12 01:25:27;;;;;;;1.80;1.20;;;;;;;35.01;22.19;100735.66;5032958;28;20021;-75
2022/07/12 01:27:52;;;;;;;2.85;1.65;;;;;;;34.97;22.25;100732.44;5033014;28;20029;-75
2022/07/12 01:30:18;;;;;;;1.90;1.52;;;;;;;34.86;22.32;100732.41;5031742;28;20467;-75
2022/07/12 01:32:44;;;;;;;4.28;1.52;;;;;;;34.82;21.73;100741.81;5033396;28;20026;-75
2022/07/12 01:35:10;;;;;;;3.75;1.67;;;;;;;34.79;21.98;100739.34;5031658;28;20454;-75
2022/07/12 01:37:37;;;;;;;3.22;1.50;;;;;;;34.76;22.49;100735.50;5033203;28;20032;-74
2022/07/12 01:40:04;;;;;;;1.73;1.52;;;;;;;34.83;21.59;100743.38;5032823;28;20052;-76
2022/07/12 01:42:30;;;;;;;3.88;1.40;;;;;;;34.85;21.71;100746.44;5031760;28;20103;-75
2022/07/12 01:44:56;;;;;;;1.48;1.30;;;;;;;34.67;21.98;100745.25;5032765;28;20471;-75
2022/07/12 01:47:23;;;;;;;1.73;1.42;;;;;;;34.82;21.69;100758.81;5034189;28;20033;-75
2022/07/12 01:49:49;;;;;;;2.63;1.38;;;;;;;34.74;21.78;100747.19;5036472;28;20053;-75
2022/07/12 01:52:14;;;;;;;1.98;1.35;;;;;;;34.70;22.16;100749.91;5036522;28;20056;-75
2022/07/12 01:54:40;;;;;;;2.53;1.65;;;;;;;34.73;21.51;100754.56;5036221;28;20377;-75
2022/07/12 01:57:06;;;;;;;3.33;1.40;;;;;;;34.63;22.14;100753.88;5036555;28;20037;-75
2022/07/12 01:59:32;;;;;;;3.05;1.50;;;;;;;34.56;22.07;100749.72;5035216;28;20025;-75
2022/07/12 02:01:58;;;;;;;2.35;1.90;;;;;;;34.39;22.20;100746.34;5035488;28;20022;-75
2022/07/12 02:04:23;;;;;;;1.55;1.45;;;;;;;34.40;22.34;100748.63;5036334;28;20048;-75
2022/07/12 02:06:49;;;;;;;2.08;1.60;;;;;;;34.52;22.23;100751.63;5034945;28;20477;-75
2022/07/12 02:09:15;;;;;;;2.55;1.65;;;;;;;34.47;21.81;100753.56;5036052;28;20025;-75
2022/07/12 02:11:41;;;;;;;1.55;1.45;;;;;;;34.25;22.27;100763.91;5036104;28;20109;-75
2022/07/12 02:14:07;;;;;;;2.45;1.73;;;;;;;34.11;22.83;100759.94;5035759;28;20025;-74
2022/07/12 02:16:33;;;;;;;2.90;2.35;;;;;;;34.17;22.19;100758.19;5035981;28;20108;-76
2022/07/12 02:18:59;;;;;;;6.38;1.88;;;;;;;34.13;22.44;100751.22;5035928;28;20471;-75
2022/07/12 02:21:24;;;;;;;4.65;1.83;;;;;;;34.14;22.14;100755.75;5035882;28;20505;-75
2022/07/12 02:23:50;;;;;;;1.52;1.38;;;;;;;34.09;21.93;100757.63;5035968;28;20382;-75
2022/07/12 02:26:16;;;;;;;4.10;1.63;;;;;;;34.34;22.05;100754.16;5051164;28;20060;-76
2022/07/12 02:28:41;;;;;;;2.00;1.80;;;;;;;34.23;21.95;100752.72;5050708;28;20076;-74
2022/07/12 02:31:07;;;;;;;3.90;2.03;;;;;;;34.14;21.85;100738.00;5034558;28;20022;-75
2022/07/12 02:33:32;;;;;;;2.58;1.38;;;;;;;34.29;21.73;100751.56;5035862;28;20040;-75
2022/07/12 02:35:58;;;;;;;3.72;2.00;;;;;;;34.24;22.11;100747.56;5035907;28;20386;-75
2022/07/12 02:38:23;;;;;;;1.85;1.70;;;;;;;34.22;22.24;100753.34;5035421;28;20486;-74
2022/07/12 02:40:55;;;;;;;1.77;1.48;;;;;;;34.15;21.95;100749.16;5034213;28;20382;-74
2022/07/12 02:43:21;;;;;;;2.55;1.60;;;;;;;34.02;22.24;100746.03;5035356;28;20025;-74
2022/07/12 02:45:47;;;;;;;1.67;1.45;;;;;;;33.93;22.33;100756.53;5050791;28;20022;-75
2022/07/12 02:48:13;;;;;;;2.58;2.00;;;;;;;33.92;21.94;100754.97;5035264;28;20036;-75
2022/07/12 02:50:39;;;;;;;3.65;1.75;;;;;;;34.11;22.33;100745.16;5035469;28;20034;-75
2022/07/12 02:53:05;;;;;;;5.68;1.75;;;;;;;34.12;21.64;100755.59;5035578;28;20029;-75
2022/07/12 02:55:30;;;;;;;1.73;1.48;;;;;;;34.02;21.96;100743.84;5035370;28;20033;-74
2022/07/12 02:57:56;;;;;;;3.67;1.95;;;;;;;33.86;22.47;100751.59;5034071;28;20025;-75
2022/07/12 03:00:21;;;;;;;2.83;1.80;;;;;;;33.86;22.06;100751.59;5034186;28;20417;-74
2022/07/12 03:02:47;;;;;;;2.75;1.83;;;;;;;33.79;22.35;100755.56;5035143;28;20051;-74
2022/07/12 03:05:12;;;;;;;1.80;1.70;;;;;;;33.80;22.52;100757.09;5034984;28;20541;-75
2022/07/12 03:07:37;;;;;;;1.98;1.42;;;;;;;33.90;22.40;100754.84;5035054;28;20030;-75
2022/07/12 03:10:04;;;;;;;2.38;1.98;;;;;;;34.08;22.15;100761.22;5033731;28;20026;-75
2022/07/12 03:12:29;;;;;;;2.72;1.50;;;;;;;34.11;21.77;100760.72;5034825;28;20037;-74
2022/07/12 03:14:55;;;;;;;2.90;1.30;;;;;;;34.12;21.98;100750.44;5035088;28;20352;-76
2022/07/12 03:17:20;;;;;;;3.25;2.00;;;;;;;33.88;22.26;100759.84;5034961;28;20104;-75
2022/07/12 03:19:46;;;;;;;4.20;1.88;;;;;;;33.83;21.83;100758.78;5034947;28;20045;-75
2022/07/12 03:22:11;;;;;;;3.35;1.70;;;;;;;33.75;22.11;100761.94;5034888;28;20025;-75
2022/07/12 03:24:37;;;;;;;4.40;1.52;;;;;;;33.82;22.27;100758.03;5050035;28;20025;-75
2022/07/12 03:27:02;;;;;;;5.95;1.88;;;;;;;33.88;22.47;100757.66;5034311;28;20025;-75
2022/07/12 03:29:28;;;;;;;3.30;1.45;;;;;;;33.93;22.09;100767.59;5034516;28;20087;-75
2022/07/12 03:31:53;;;;;;;4.35;1.90;;;;;;;33.87;22.61;100767.94;5034837;28;20497;-75
2022/07/12 03:34:19;;;;;;;1.65;1.50;;;;;;;33.78;22.44;100772.53;5034629;28;20035;-75
2022/07/12 03:36:45;;;;;;;1.55;1.45;;;;;;;33.94;21.70;100769.91;5034514;28;20386;-76
2022/07/12 03:39:11;;;;;;;1.60;1.50;;;;;;;34.18;22.15;100773.78;5034181;28;20499;-75
2022/07/12 03:41:36;;;;;;;6.50;1.63;;;;;;;34.21;21.91;100773.28;5033038;28;20034;-75
2022/07/12 03:44:01;;;;;;;1.42;1.33;;;;;;;34.38;22.04;100771.41;5034344;28;20456;-75
2022/07/12 03:46:29;;;;;;;2.28;1.40;;;;;;;34.80;21.24;100771.28;5034050;28;20029;-76
2022/07/12 03:48:54;;;;;;;6.47;2.00;;;;;;;35.18;20.65;100778.19;5034254;28;20033;-76
2022/07/12 03:51:20;;;;;;;4.43;1.15;;;;;;;35.39;20.92;100778.81;5034740;28;20121;-75
2022/07/12 03:53:48;;;;;;;4.28;1.23;;;;;;;35.55;21.03;100760.50;5034452;28;20383;-75
2022/07/12 03:57:13;;;;;;;1.75;1.02;;;;;;;35.72;20.24;100766.78;5034045;28;20034;-75
2022/07/12 03:58:59;;;;;;;2.05;1.38;;;;;;;35.82;20.42;100770.38;5033897;28;20033;-75
2022/07/12 04:01:27;;;;;;;5.60;1.65;;;;;;;36.19;20.20;100767.44;5034197;28;20043;-76
2022/07/12 04:03:55;;;;;;;2.03;1.33;;;;;;;36.57;20.09;100774.88;5034113;28;20486;-75
2022/07/12 04:06:21;;;;;;;2.33;1.50;;;;;;;36.77;19.44;100757.47;5032699;28;20384;-76
2022/07/12 04:08:46;;;;;;;3.67;2.72;;;;;;;36.58;19.82;100763.75;5032235;28;20037;-76
2022/07/12 04:11:13;;;;;;;3.70;1.75;;;;;;;36.90;19.67;100755.97;5034006;28;20414;-76
2022/07/12 04:13:40;;;;;;;3.95;1.55;;;;;;;37.05;19.63;100761.28;5034199;28;20463;-76
2022/07/12 04:16:07;;;;;;;3.47;1.90;;;;;;;37.36;19.31;100758.56;5033920;28;20485;-74
2022/07/12 04:18:34;;;;;;;2.00;1.80;;;;;;;37.63;18.95;100760.78;5033586;28;20033;-75
2022/07/12 04:21:03;;;;;;;5.95;2.38;;;;;;;37.93;18.72;100755.69;5032560;28;20043;-75
2022/07/12 04:23:28;;;;;;;2.80;1.60;;;;;;;37.87;18.71;100758.31;5033650;28;20032;-75
2022/07/12 04:25:58;;;;;;;2.58;1.35;;;;;;;38.35;18.14;100766.03;5033417;28;20037;-74
2022/07/12 04:28:24;;;;;;;1.83;1.20;;;;;;;38.06;18.80;100760.06;5033271;28;20045;-73
2022/07/12 04:30:49;;;;;;;4.93;2.22;;;;;;;38.14;18.57;100758.28;5032178;28;20029;-73
2022/07/12 04:33:16;;;;;;;7.28;1.40;;;;;;;38.55;17.96;100751.41;5033657;28;20091;-73
2022/07/12 04:35:42;;;;;;;2.85;1.10;;;;;;;38.88;17.90;100746.38;5033495;28;20045;-73
2022/07/12 04:38:08;;;;;;;2.80;1.50;;;;;;;39.15;17.52;100751.38;5033182;28;20484;-73
2022/07/12 04:40:35;;;;;;;3.22;1.52;;;;;;;39.44;17.44;100753.50;5033322;28;20072;-73
2022/07/12 04:43:07;;;;;;;3.38;1.50;;;;;;;39.84;17.42;100747.84;5032943;28;20454;-74
2022/07/12 04:45:33;;;;;;;5.05;1.48;;;;;;;40.04;16.91;100758.44;5032969;28;20033;-73
2022/07/12 04:48:00;;;;;;;4.07;1.58;;;;;;;40.25;17.17;100750.38;5033262;28;20045;-74
2022/07/12 04:50:27;;;;;;;5.25;1.40;;;;;;;40.63;16.65;100751.25;5033696;28;20037;-73
2022/07/12 04:52:53;;;;;;;3.80;1.00;;;;;;;40.78;15.76;100751.13;5033318;28;20036;-73
2022/07/12 04:55:19;;;;;;;8.30;1.45;;;;;;;40.70;16.59;100750.81;5033271;28;20022;-74
2022/07/12 04:57:46;;;;;;;1.98;1.30;;;;;;;40.77;16.48;100746.59;5033179;28;20596;-73
2022/07/12 05:00:16;;;;;;;2.85;1.20;;;;;;;40.71;16.42;100751.56;5033313;28;20025;-73
2022/07/12 05:02:42;;;;;;;3.22;1.45;;;;;;;40.12;17.07;100749.81;5033134;28;20478;-72
2022/07/12 05:05:09;;;;;;;3.55;1.25;;;;;;;40.46;16.75;100746.78;5033536;28;20564;-73
2022/07/12 05:07:34;;;;;;;6.00;1.10;;;;;;;40.30;16.72;100752.88;5034354;28;20052;-72
2022/07/12 05:10:00;;;;;;;3.28;1.08;;;;;;;40.39;16.69;100739.03;5033380;28;20034;-74
2022/07/12 05:12:28;;;;;;;2.78;1.48;;;;;;;40.71;16.38;100748.56;5033284;28;20021;-73
2022/07/12 05:14:54;;;;;;;3.13;1.10;;;;;;;40.51;16.29;100748.47;5032845;28;20026;-74
2022/07/12 05:17:21;;;;;;;2.25;1.50;;;;;;;40.84;15.84;100742.41;5031893;28;20084;-74
2022/07/12 05:19:48;;;;;;;4.55;1.60;;;;;;;41.25;15.73;100741.00;5031784;28;20022;-73
2022/07/12 05:22:16;;;;;;;2.33;0.80;;;;;;;41.06;15.36;100739.53;5035275;28;20025;-73
2022/07/12 05:24:42;;;;;;;3.05;0.93;;;;;;;41.43;15.00;100740.94;5036379;28;20486;-75
2022/07/12 05:27:11;;;;;;;4.53;1.17;;;;;;;42.05;15.44;100733.47;5036964;28;20032;-73
2022/07/12 05:29:36;;;;;;;4.28;1.38;;;;;;;42.55;14.99;100729.22;5035956;28;20466;-74
2022/07/12 05:32:05;;;;;;;3.05;0.70;;;;;;;42.01;14.93;100730.34;5036486;28;20037;-73
2022/07/12 05:34:30;;;;;;;4.10;1.10;;;;;;;42.00;14.54;100732.56;5035536;28;20425;-72
2022/07/12 05:36:57;;;;;;;5.15;1.30;;;;;;;41.99;14.87;100739.28;5036486;28;20458;-73
2022/07/12 05:39:22;;;;;;;3.08;1.98;;;;;;;41.76;14.99;100740.69;5036058;28;20046;-74
2022/07/12 05:41:50;;;;;;;6.70;1.52;;;;;;;42.36;14.83;100738.31;5037589;28;20041;-73
2022/07/12 05:44:19;;;;;;;5.28;1.23;;;;;;;42.85;14.28;100734.66;5036297;28;20104;-73
2022/07/12 05:46:46;;;;;;;3.17;1.33;;;;;;;42.42;14.63;100730.28;5035664;28;20021;-73
2022/07/12 05:49:12;;;;;;;5.50;1.38;;;;;;;42.36;14.96;100726.31;5034892;28;20083;-73
2022/07/12 05:54:23;;;;;;;7.97;2.50;;;;;;;41.49;15.58;100709.03;5035647;28;20032;-73
2022/07/12 05:56:50;;;;;;;3.45;1.42;;;;;;;41.96;14.83;100714.47;5018072;28;20033;-73
2022/07/12 05:59:17;;;;;;;7.07;1.75;;;;;;;42.23;14.72;100722.13;5035288;28;20471;-74
2022/07/12 06:01:45;;;;;;;2.35;1.08;;;;;;;42.59;14.53;100713.59;5034755;28;20033;-73
2022/07/12 06:04:11;;;;;;;5.68;1.25;;;;;;;42.77;14.31;100705.22;5036038;28;20060;-74
2022/07/12 06:06:39;;;;;;;8.05;1.75;;;;;;;43.56;14.53;100706.81;5035042;28;20048;-73
2022/07/12 06:09:06;;;;;;;2.83;0.90;;;;;;;44.77;13.39;100706.94;5035790;28;20531;-73
2022/07/12 06:11:33;;;;;;;8.15;1.20;;;;;;;47.38;11.93;100693.47;5035956;28;20122;-73
2022/07/12 06:14:01;;;;;;;2.80;1.00;;;;;;;48.98;10.09;100688.78;5036344;28;20017;-71
2022/07/12 06:16:27;;;;;;;3.50;1.52;;;;;;;49.02;10.92;100688.81;5035809;28;20048;-73
2022/07/12 06:18:52;;;;;;;2.05;1.05;;;;;;;47.39;11.53;100691.97;5035827;28;20037;-73
2022/07/12 06:21:19;;;;;;;6.25;2.67;;;;;;;47.56;11.56;100699.72;5030210;28;20489;-74
2022/07/12 06:23:44;;;;;;;2.33;0.80;;;;;;;48.64;10.93;100694.63;5034548;28;20107;-72
2022/07/12 06:26:09;;;;;;;1.63;0.60;;;;;;;52.36;9.00;100675.88;5035629;28;20053;-76
2022/07/12 06:28:36;;;;;;;3.38;0.90;;;;;;;55.61;7.58;100671.25;5050118;28;20378;-73
2022/07/12 06:31:02;;;;;;;6.95;1.83;;;;;;;57.91;5.76;100657.69;5032242;28;20131;-73
2022/07/12 06:33:27;;;;;;;1.85;0.90;;;;;;;59.55;5.83;100639.19;5035336;28;20585;-73
2022/07/12 06:35:54;;;;;;;6.72;1.00;;;;;;;61.04;3.36;100631.66;5050743;28;20029;-72
2022/07/12 06:38:19;;;;;;;1.48;0.55;;;;;;;59.53;4.34;100633.09;5034973;28;20037;-71
2022/07/12 06:40:45;;;;;;;2.17;0.68;;;;;;;61.55;4.91;100633.00;5035069;28;20029;-72
2022/07/12 06:43:11;;;;;;;1.95;0.85;;;;;;;63.59;2.93;100617.13;5028555;28;20022;-71
2022/07/12 06:45:37;;;;;;;1.08;0.63;;;;;;;63.58;2.50;100618.72;5015548;28;20034;-72
2022/07/12 06:48:03;;;;;;;2.25;0.95;;;;;;;64.10;2.22;100624.81;5023607;28;20026;-72
2022/07/12 06:50:28;;;;;;;1.98;0.85;;;;;;;64.34;2.62;100606.31;5014989;28;20100;-72
2022/07/12 06:52:54;;;;;;;3.53;1.02;;;;;;;64.42;2.14;100599.59;5015381;28;20025;-72
2022/07/12 06:55:19;;;;;;;2.50;0.55;;;;;;;65.59;3.13;100609.66;5015197;28;20080;-72
2022/07/12 06:57:45;;;;;;;1.80;0.55;;;;;;;66.32;0.40;100599.03;5015222;28;20375;-72
2022/07/12 07:00:11;;;;;;;4.53;1.02;;;;;;;65.34;2.20;100579.53;5026902;28;20022;-72
2022/07/12 07:02:40;;;;;;;1.00;0.40;;;;;;;66.59;0.96;100576.09;5035221;28;20018;-70
2022/07/12 07:05:07;;;;;;;3.92;0.70;;;;;;;66.79;1.30;100567.59;5034795;28;20021;-72
2022/07/12 07:07:33;;;;;;;2.92;1.90;;;;;;;67.05;2.02;100564.88;5034247;28;20049;-71
2022/07/12 07:09:58;;;;;;;4.18;1.30;;;;;;;67.74;1.06;100564.09;5034663;28;20057;-72
2022/07/12 07:12:24;;;;;;;2.30;0.70;;;;;;;68.18;0.91;100569.13;5033980;28;20033;-72
2022/07/12 07:14:49;;;;;;;3.70;0.70;;;;;;;68.36;2.03;100566.13;5033642;28;20021;-72
2022/07/12 07:17:17;;;;;;;5.10;1.35;;;;;;;69.32;1.08;100566.59;5034140;28;20462;-72
2022/07/12 07:19:43;;;;;;;4.72;0.93;;;;;;;70.15;0.00;100558.50;5032915;28;20182;-72
2022/07/12 07:22:08;;;;;;;2.88;0.93;;;;;;;70.07;0.53;100547.47;5034587;28;20036;-72
2022/07/12 07:24:34;;;;;;;1.45;0.50;;;;;;;69.09;0.38;100551.41;5034460;28;20033;-72
2022/07/12 07:26:59;;;;;;;0.70;0.50;;;;;;;68.75;0.00;100542.59;5034737;28;20413;-72
2022/07/12 07:32:08;;;;;;;3.03;0.70;;;;;;;67.09;0.40;100540.38;5033359;28;20047;-71
2022/07/12 07:34:34;;;;;;;4.53;1.00;;;;;;;68.56;0.43;100542.63;5034062;28;20378;-76
2022/07/12 07:36:59;;;;;;;5.05;1.70;;;;;;;67.68;0.00;100529.56;5034154;28;20013;-75
2022/07/12 07:39:25;;;;;;;1.88;0.52;;;;;;;68.53;0.11;100542.09;5032583;28;20511;-75
2022/07/12 07:41:50;;;;;;;1.38;0.70;;;;;;;68.02;0.00;100529.91;5031139;28;20021;-74
2022/07/12 07:44:15;;;;;;;2.05;0.75;;;;;;;67.86;0.47;100534.31;5033087;28;20075;-74
2022/07/12 07:46:41;;;;;;;2.20;1.13;;;;;;;68.15;0.20;100545.28;5032615;28;20097;-74
2022/07/12 07:49:07;;;;;;;5.63;1.02;;;;;;;69.28;0.11;100545.09;5033949;28;20382;-73
2022/07/12 07:51:32;;;;;;;4.53;0.70;;;;;;;69.50;0.15;100532.28;5049243;28;20103;-73
2022/07/12 07:53:57;;;;;;;3.58;0.60;;;;;;;70.01;0.00;100544.16;5033925;28;20513;-75
2022/07/12 07:56:23;;;;;;;6.80;0.98;;;;;;;69.96;0.19;100518.78;5033884;28;20018;-74
2022/07/12 07:58:48;;;;;;;2.58;0.52;;;;;;;70.03;0.00;100531.44;5032622;28;20032;-73
2022/07/12 08:01:14;;;;;;;2.30;0.88;;;;;;;68.46;0.00;100513.03;5033943;28;20359;-75
2022/07/12 08:03:39;;;;;;;7.88;1.33;;;;;;;68.43;0.38;100514.88;5032709;28;20454;-73
2022/07/12 08:06:05;;;;;;;8.02;0.80;;;;;;;68.94;0.63;100520.66;5033914;28;20104;-74
2022/07/12 08:08:30;;;;;;;1.20;0.40;;;;;;;67.87;0.39;100501.56;5033742;28;20029;-74
2022/07/12 08:10:56;;;;;;;3.58;0.77;;;;;;;67.41;0.00;100519.19;5033899;28;20041;-74
2022/07/12 08:13:22;;;;;;;2.85;0.43;;;;;;;66.97;0.00;100510.19;5032857;28;20053;-74
2022/07/12 08:15:47;;;;;;;2.17;0.32;;;;;;;66.46;1.13;100520.25;5033574;28;20063;-75
2022/07/12 08:18:13;;;;;;;1.15;0.57;;;;;;;67.23;0.30;100526.09;5033579;28;20025;-71
2022/07/12 08:20:38;;;;;;;5.65;0.60;;;;;;;66.84;0.59;100525.97;5033437;28;20022;-73
2022/07/12 08:23:03;;;;;;;1.42;0.60;;;;;;;66.41;0.52;100528.41;5033143;28;20394;-74
2022/07/12 08:25:30;;;;;;;3.15;1.00;;;;;;;66.16;0.57;100535.69;5033580;28;20056;-74
2022/07/12 08:27:56;;;;;;;1.08;0.60;;;;;;;65.68;0.67;100524.34;5033091;28;20037;-74
2022/07/12 08:30:22;;;;;;;0.88;0.50;;;;;;;64.18;1.10;100533.69;5031995;28;20056;-73
2022/07/12 08:32:47;;;;;;;0.50;0.50;;;;;;;59.72;2.80;100531.50;5033141;28;20502;-74
2022/07/12 08:35:16;;;;;;;0.73;0.40;;;;;;;56.69;4.24;100529.75;5033159;28;20021;-73
2022/07/12 08:37:42;;;;;;;0.55;0.45;;;;;;;53.72;5.22;100546.84;5032362;28;20029;-72
2022/07/12 08:40:08;;;;;;;2.88;0.60;;;;;;;53.15;5.57;100561.50;5032010;28;20041;-74
2022/07/12 08:42:34;;;;;;;3.45;0.40;;;;;;;53.37;4.97;100561.16;5033255;28;20021;-74
2022/07/12 08:45:00;;;;;;;1.55;0.60;;;;;;;50.44;6.28;100561.66;5033232;28;20481;-74
2022/07/12 08:47:25;;;;;;;4.90;0.77;;;;;;;50.29;6.80;100582.16;5033398;28;20476;-73
2022/07/12 08:50:12;;;;;;;8.25;0.80;;;;;;;50.49;6.90;100584.38;5032594;28;20048;-73
2022/07/12 08:52:42;;;;;;;1.92;0.45;;;;;;;49.76;7.06;100571.63;5033229;28;20473;-72
2022/07/12 08:55:25;;;;;;;23.83;2.70;;;;;;;48.28;8.28;100574.16;5031939;28;20108;-73
2022/07/12 08:57:54;;;;;;;25.00;2.53;;;;;;;48.85;7.73;100579.00;5036690;28;20678;-72
2022/07/12 09:00:20;;;;;;;6.07;0.73;;;;;;;49.12;6.89;100585.16;5037185;28;20059;-73
2022/07/12 09:02:48;;;;;;;1.92;0.55;;;;;;;49.30;7.08;100585.19;5037410;28;20021;-74
2022/07/12 09:05:16;;;;;;;4.47;0.63;;;;;;;49.75;6.92;100588.28;5035399;28;20052;-73
2022/07/12 09:07:41;;;;;;;4.55;0.80;;;;;;;49.09;6.88;100598.78;5036670;28;20028;-73
2022/07/12 09:10:08;;;;;;;6.78;0.82;;;;;;;48.81;6.80;100593.34;5033513;28;20021;-73
2022/07/12 09:12:35;;;;;;;4.20;1.20;;;;;;;48.69;7.09;100591.06;5017269;28;20026;-73
2022/07/12 09:15:15;;;;;;;3.22;0.98;;;;;;;47.93;7.63;100600.34;5016885;28;20112;-73
2022/07/12 09:17:46;;;;;;;1.33;0.40;;;;;;;47.72;7.74;100589.59;5017294;28;20034;-73
2022/07/12 09:20:13;;;;;;;0.60;0.30;;;;;;;47.61;7.93;100598.56;5017364;28;20022;-73
2022/07/12 09:22:47;;;;;;;3.63;0.50;;;;;;;47.21;8.46;100598.16;5016845;28;20471;-72
2022/07/12 09:25:17;;;;;;;1.40;0.65;;;;;;;47.63;8.32;100595.59;5016759;28;20018;-73
2022/07/12 09:28:07;;;;;;;2.00;0.93;;;;;;;48.14;8.00;100589.97;5016822;28;20021;-72
2022/07/12 09:30:33;;;;;;;5.15;0.63;;;;;;;47.98;8.67;100589.81;5016034;28;20045;-72
2022/07/12 09:36:10;;;;;;;3.28;0.75;;;;;;;48.02;8.66;100589.84;5035289;28;20044;-73
2022/07/12 09:38:39;;;;;;;2.90;0.60;;;;;;;48.52;7.92;100598.50;5036388;28;20050;-73
2022/07/12 09:41:06;;;;;;;4.28;0.68;;;;;;;48.69;7.77;100594.09;5036248;28;20029;-72
2022/07/12 09:43:32;;;;;;;6.07;0.68;;;;;;;48.98;7.69;100588.88;5036598;28;20070;-73
2022/07/12 09:45:58;;;;;;;3.83;0.63;;;;;;;49.50;7.42;100596.59;5036461;28;20355;-75
2022/07/12 09:48:26;;;;;;;7.03;1.20;;;;;;;48.65;7.64;100593.28;5035794;28;20025;-74
2022/07/12 09:50:51;;;;;;;5.57;1.05;;;;;;;49.39;7.61;100595.81;5036001;28;20033;-72
2022/07/12 09:53:21;;;;;;;2.60;0.40;;;;;;;49.85;7.21;100600.41;5034581;28;20044;-72
2022/07/12 09:55:50;;;;;;;2.35;0.85;;;;;;;49.36;7.40;100590.50;5035406;28;20022;-74
2022/07/12 09:58:31;;;;;;;1.48;0.55;;;;;;;49.71;7.24;100595.84;5034672;28;20498;-72
2022/07/12 10:01:02;;;;;;;3.03;0.30;;;;;;;50.30;7.33;100604.16;5035463;28;20017;-74
2022/07/12 10:03:31;;;;;;;1.60;0.77;;;;;;;48.62;7.55;100589.47;5036158;28;20083;-70
2022/07/12 10:05:57;;;;;;;3.72;0.88;;;;;;;48.58;7.38;100594.75;5036007;28;20497;-70
2022/07/12 10:08:22;;;;;;;7.53;1.15;;;;;;;48.96;7.36;100604.00;5035145;28;20056;-69
2022/07/12 10:10:49;;;;;;;5.25;0.82;;;;;;;50.19;6.98;100606.44;5036196;28;20079;-72
2022/07/12 10:13:15;;;;;;;1.98;0.40;;;;;;;50.13;6.70;100585.25;5035278;28;20021;-69
2022/07/12 10:15:43;;;;;;;2.47;0.68;;;;;;;49.64;6.51;100600.38;5036373;28;20026;-71
2022/07/12 10:18:15;;;;;;;4.40;0.73;;;;;;;49.07;6.97;100607.84;5034270;28;20033;-69
2022/07/12 10:20:44;;;;;;;1.85;0.47;;;;;;;49.20;7.35;100588.94;5035864;28;20029;-70
2022/07/12 10:23:34;;;;;;;6.13;1.02;;;;;;;48.75;7.20;100596.38;5035503;28;20474;-70
2022/07/12 10:26:20;;;;;;;3.63;0.60;;;;;;;48.85;7.36;100602.44;5035280;28;20496;-70
2022/07/12 10:29:05;;;;;;;2.80;0.47;;;;;;;49.16;6.82;100598.03;5034616;28;20044;-70
2022/07/12 10:31:39;;;;;;;3.53;0.63;;;;;;;49.41;6.69;100601.13;5036166;28;20017;-68
2022/07/12 10:34:11;;;;;;;3.83;0.65;;;;;;;49.42;7.14;100600.38;5023584;28;20108;-74
2022/07/12 10:36:55;;;;;;;1.92;0.50;;;;;;;48.84;6.88;100597.94;5015636;28;20041;-73
2022/07/12 10:39:29;;;;;;;2.67;1.15;;;;;;;48.25;7.72;100591.53;5015298;28;20498;-74
2022/07/12 10:42:05;;;;;;;6.50;1.10;;;;;;;47.85;8.07;100592.00;5014195;28;20151;-73
2022/07/12 10:44:41;;;;;;;5.38;0.80;;;;;;;47.92;7.37;100598.81;5015054;28;20030;-73
2022/07/12 10:47:08;;;;;;;1.52;0.52;;;;;;;47.80;8.22;100602.53;5015809;28;20026;-74
2022/07/12 10:49:35;;;;;;;2.75;0.50;;;;;;;47.67;8.11;100603.91;5015292;28;20030;-73
2022/07/12 10:52:10;;;;;;;7.35;1.67;;;;;;;48.04;8.13;100599.72;5015277;28;20451;-73
2022/07/12 10:54:39;;;;;;;10.40;1.10;;;;;;;47.86;7.53;100599.53;5015224;28;20030;-74
2022/07/12 10:57:04;;;;;;;6.32;1.27;;;;;;;48.27;7.26;100596.81;5015249;28;20022;-72
2022/07/12 10:59:37;;;;;;;6.10;0.80;;;;;;;48.36;7.76;100590.09;5015235;28;20390;-74
2022/07/12 11:02:05;;;;;;;0.77;0.60;;;;;;;48.30;7.52;100590.06;5015318;28;20033;-71
2022/07/12 11:04:30;;;;;;;6.22;1.55;;;;;;;48.46;7.97;100587.13;5015014;28;20493;-72
2022/07/12 11:06:57;;;;;;;8.40;0.73;;;;;;;48.77;7.90;100593.34;5015107;28;20022;-72
2022/07/12 11:09:25;;;;;;;13.88;0.70;;;;;;;48.88;7.91;100595.66;5015129;28;20018;-72
2022/07/12 11:11:52;;;;;;;5.22;0.77;;;;;;;49.48;7.55;100593.56;5015059;28;20044;-72
2022/07/12 11:14:21;;;;;;;3.88;0.40;;;;;;;49.46;7.39;100591.28;5014827;28;20040;-71
2022/07/12 11:16:47;;;;;;;3.63;0.70;;;;;;;49.53;7.13;100586.75;5014723;28;20026;-72
2022/07/12 11:19:14;;;;;;;5.00;0.80;;;;;;;49.52;7.36;100585.25;5013907;28;20022;-73
2022/07/12 11:21:43;;;;;;;2.95;0.88;;;;;;;49.23;7.36;100581.41;5014492;28;20045;-72
2022/07/12 11:24:18;;;;;;;12.18;1.20;;;;;;;49.22;7.30;100588.97;5014312;28;20379;-72
2022/07/12 11:26:43;;;;;;;1.67;0.77;;;;;;;49.62;6.91;100588.28;5014639;28;20079;-73
2022/07/12 11:29:09;;;;;;;4.38;0.73;;;;;;;49.43;7.20;100576.91;5014661;28;20124;-72
2022/07/12 11:31:36;;;;;;;9.55;1.88;;;;;;;49.48;6.84;100575.38;5014349;28;20100;-72
2022/07/12 11:34:01;;;;;;;1.42;0.60;;;;;;;49.08;7.54;100573.03;5014397;28;20113;-73
2022/07/12 11:36:27;;;;;;;1.40;0.70;;;;;;;48.87;7.08;100572.94;5014294;28;20096;-71